Time;durP1;ratioP1;P1;durP2;ratioP2;P2;SDS_P1;SDS_P2;PMS_P1;PMS_P2;Temp;Humidity;BMP_temperature;BMP_pressure;BME280_temperature;BME280_humidity;BME280_pressure;Samples;Min_cycle;Max_cycle;Signal;HPM_P1;HPM_P2
2021/12/25 00:02:55;;;;;;;7.17;5.53;;;10.90;99.90;;;;;;4976828;28;20502;-88
2021/12/25 00:56:50;;;;;;;6.63;4.63;;;10.80;99.90;;;;;;5006204;28;20408;-89
2021/12/25 01:00:09;;;;;;;10.00;5.10;;;10.90;99.90;;;;;;5013881;28;20492;-88
2021/12/25 01:48:23;;;;;;;8.80;4.80;;;10.70;99.90;;;;;;5008020;28;20442;-89
2021/12/25 01:54:20;;;;;;;11.40;5.40;;;10.80;99.90;;;;;;4983084;28;20463;-89
2021/12/25 01:59:56;;;;;;;9.20;5.60;;;10.30;99.90;;;;;;4978385;28;20540;-88
2021/12/25 02:02:34;;;;;;;6.43;4.43;;;10.20;99.90;;;;;;5012252;28;20455;-87
2021/12/25 02:05:24;;;;;;;7.40;5.10;;;10.20;99.90;;;;;;5012849;28;20473;-89
2021/12/25 02:08:19;;;;;;;8.73;5.90;;;10.10;99.90;;;;;;4988278;28;20458;-88
2021/12/25 02:11:12;;;;;;;7.80;5.40;;;10.10;99.90;;;;;;4987080;28;20510;-88
2021/12/25 02:20:13;;;;;;;8.53;5.87;;;10.10;99.90;;;;;;4975401;28;20484;-90
2021/12/25 02:38:23;;;;;;;11.13;5.40;;;10.20;99.90;;;;;;5003877;28;20446;-88
2021/12/25 02:44:02;;;;;;;9.10;6.20;;;10.10;99.90;;;;;;4989989;28;20523;-88
2021/12/25 02:50:10;;;;;;;;;;;;;;;;;;;;;
2021/12/25 02:53:13;;;;;;;;;;;;;;;;;;;;;
2021/12/25 02:56:13;;;;;;;9.10;6.13;;;9.80;99.90;;;;;;5005548;28;20561;-88
2021/12/25 02:59:15;;;;;;;9.90;6.30;;;9.90;99.90;;;;;;5007635;28;20434;-89
2021/12/25 03:01:46;;;;;;;10.93;7.37;;;9.80;99.90;;;;;;5007321;28;20555;-88
2021/12/25 03:04:32;;;;;;;10.10;6.87;;;9.80;99.90;;;;;;5013974;28;20522;-87
2021/12/25 03:07:28;;;;;;;8.93;6.30;;;9.80;99.90;;;;;;5022371;28;20414;-88
2021/12/25 03:19:27;;;;;;;9.37;7.53;;;9.80;99.90;;;;;;5013141;28;20454;-90
2021/12/25 03:22:45;;;;;;;9.73;6.07;;;9.90;99.90;;;;;;5003943;28;20485;-90
2021/12/25 03:28:53;;;;;;;9.97;6.80;;;10.00;99.90;;;;;;5003988;28;20901;-89
2021/12/25 03:35:11;;;;;;;11.60;5.90;;;10.20;99.90;;;;;;4917371;29;20465;-89
2021/12/25 03:40:59;;;;;;;8.90;6.20;;;10.20;99.90;;;;;;4945544;29;20483;-89
2021/12/25 03:53:25;;;;;;;9.53;5.30;;;10.10;99.90;;;;;;5002238;28;20637;-89
2021/12/25 03:59:43;;;;;;;7.63;4.73;;;10.00;99.90;;;;;;4996006;28;20449;-90
2021/12/25 04:05:44;;;;;;;8.30;5.27;;;10.20;99.90;;;;;;4999613;28;20451;-88
2021/12/25 04:11:43;;;;;;;8.57;4.77;;;10.20;99.90;;;;;;4969952;28;20456;-89
2021/12/25 04:14:39;;;;;;;6.97;4.77;;;10.20;99.90;;;;;;5020628;28;20481;-89
2021/12/25 04:17:26;;;;;;;8.53;5.00;;;10.20;99.90;;;;;;4982710;28;20467;-90
2021/12/25 04:20:23;;;;;;;7.27;4.70;;;10.20;99.90;;;;;;5016942;28;20481;-89
2021/12/25 04:23:26;;;;;;;8.83;4.83;;;10.30;99.90;;;;;;5005362;28;20462;-89
2021/12/25 04:29:20;;;;;;;9.10;5.13;;;10.30;99.90;;;;;;5003785;28;20444;-89
2021/12/25 04:48:27;;;;;;;5.73;4.03;;;10.40;99.90;;;;;;5157188;27;20416;-89
2021/12/25 05:02:55;;;;;;;6.27;3.90;;;10.40;99.90;;;;;;5092303;28;20978;-90
2021/12/25 05:06:00;;;;;;;7.20;4.40;;;10.40;99.90;;;;;;5154490;27;20446;-90
2021/12/25 05:08:53;;;;;;;7.87;3.30;;;10.30;99.90;;;;;;5142033;27;20482;-89
2021/12/25 05:11:48;;;;;;;7.00;3.93;;;10.50;99.90;;;;;;5141082;28;20445;-90
2021/12/25 05:14:14;;;;;;;6.00;3.80;;;10.40;99.90;;;;;;5172553;22;20476;-80
2021/12/25 05:16:41;;;;;;;6.37;3.90;;;10.40;99.90;;;;;;5075292;28;20462;-80
2021/12/25 05:19:09;;;;;;;5.73;3.40;;;10.40;99.90;;;;;;5074883;28;20450;-80
2021/12/25 05:21:35;;;;;;;5.73;3.70;;;10.30;99.90;;;;;;5073563;28;20447;-80
2021/12/25 05:24:05;;;;;;;5.13;3.40;;;10.30;99.90;;;;;;5076067;28;20523;-79
2021/12/25 05:26:32;;;;;;;5.30;3.20;;;10.30;99.90;;;;;;5060573;28;20448;-79
2021/12/25 05:29:00;;;;;;;6.13;3.03;;;10.30;99.90;;;;;;5060319;28;20456;-79
2021/12/25 05:31:29;;;;;;;4.70;3.13;;;10.30;99.90;;;;;;5060201;28;20955;-79
2021/12/25 05:33:56;;;;;;;6.07;3.40;;;10.40;99.90;;;;;;5058016;28;20571;-79
2021/12/25 05:36:26;;;;;;;6.60;3.83;;;10.40;99.90;;;;;;5053151;28;20562;-80
2021/12/25 05:38:56;;;;;;;6.37;3.43;;;10.40;99.90;;;;;;5056522;28;20440;-79
2021/12/25 05:41:24;;;;;;;5.27;3.47;;;10.40;99.90;;;;;;5052023;28;20456;-81
2021/12/25 05:43:51;;;;;;;6.70;3.60;;;10.50;99.90;;;;;;5051628;28;20538;-80
2021/12/25 05:46:18;;;;;;;8.17;4.00;;;10.50;99.90;;;;;;5038213;28;20563;-80
2021/12/25 05:48:45;;;;;;;7.37;3.80;;;10.50;99.90;;;;;;5037650;28;20456;-79
2021/12/25 05:51:13;;;;;;;8.30;3.80;;;10.50;99.90;;;;;;5039081;28;20460;-80
2021/12/25 05:53:40;;;;;;;5.30;3.60;;;10.40;99.90;;;;;;5047914;28;20492;-80
2021/12/25 05:56:07;;;;;;;5.40;3.43;;;10.30;99.90;;;;;;5052184;28;20547;-80
2021/12/25 05:58:35;;;;;;;6.10;4.33;;;10.40;99.90;;;;;;5044961;28;20535;-82
2021/12/25 06:01:02;;;;;;;6.47;3.53;;;10.40;99.90;;;;;;5038151;28;20487;-80
2021/12/25 06:03:29;;;;;;;7.70;4.90;;;10.40;99.90;;;;;;5038365;28;20507;-81
2021/12/25 06:05:57;;;;;;;7.90;4.80;;;10.40;99.90;;;;;;5038032;28;20563;-80
2021/12/25 06:08:24;;;;;;;6.40;4.20;;;10.30;99.90;;;;;;5038188;28;20449;-80
2021/12/25 06:10:51;;;;;;;7.73;4.40;;;10.30;99.90;;;;;;5038369;28;20909;-80
2021/12/25 06:13:20;;;;;;;7.77;4.93;;;10.20;99.90;;;;;;5038281;28;20937;-80
2021/12/25 06:15:51;;;;;;;9.17;4.70;;;10.20;99.90;;;;;;5037418;28;20491;-82
2021/12/25 06:18:18;;;;;;;5.70;4.17;;;10.20;99.90;;;;;;5037653;28;20532;-80
2021/12/25 06:20:45;;;;;;;6.90;4.30;;;10.10;99.90;;;;;;5039272;28;20494;-81
2021/12/25 06:23:12;;;;;;;8.63;5.63;;;10.10;99.90;;;;;;5040043;28;20487;-80
2021/12/25 06:25:39;;;;;;;8.40;5.60;;;10.10;99.90;;;;;;5038614;28;20568;-80
2021/12/25 06:28:06;;;;;;;7.10;4.83;;;10.20;99.90;;;;;;5038365;28;20472;-80
2021/12/25 06:30:33;;;;;;;8.53;5.57;;;10.30;99.90;;;;;;5038312;28;20542;-81
2021/12/25 06:33:01;;;;;;;7.10;4.80;;;10.30;99.90;;;;;;5050473;28;20977;-80
2021/12/25 06:35:28;;;;;;;7.30;5.13;;;10.40;99.90;;;;;;5038144;28;20808;-81
2021/12/25 06:37:58;;;;;;;7.93;4.80;;;10.40;99.90;;;;;;5037437;28;20492;-80
2021/12/25 06:40:25;;;;;;;7.37;5.53;;;10.30;99.90;;;;;;5045081;28;20198;-80
2021/12/25 06:42:52;;;;;;;6.93;4.87;;;10.40;99.90;;;;;;5051739;28;20492;-80
2021/12/25 06:45:18;;;;;;;7.53;4.77;;;10.30;99.90;;;;;;5044661;28;20568;-81
2021/12/25 06:47:45;;;;;;;11.20;5.20;;;10.20;99.90;;;;;;5039188;28;20819;-80
2021/12/25 06:50:14;;;;;;;7.60;5.07;;;10.30;99.90;;;;;;5047388;28;20444;-80
2021/12/25 06:52:45;;;;;;;8.40;5.30;;;10.40;99.90;;;;;;5051614;28;20297;-80
2021/12/25 06:55:13;;;;;;;8.77;5.47;;;10.30;99.90;;;;;;5040376;28;20493;-81
2021/12/25 06:57:47;;;;;;;8.10;5.67;;;10.30;99.90;;;;;;5036514;28;20867;-80
2021/12/25 07:00:15;;;;;;;7.63;5.23;;;10.30;99.90;;;;;;5036848;28;20443;-81
2021/12/25 07:02:42;;;;;;;7.57;4.90;;;10.30;99.90;;;;;;5037370;28;20479;-81
2021/12/25 07:05:09;;;;;;;9.57;5.50;;;10.30;99.90;;;;;;5036808;28;20473;-81
2021/12/25 07:07:38;;;;;;;7.03;4.63;;;10.30;99.90;;;;;;5036851;28;20459;-80
2021/12/25 07:10:06;;;;;;;8.97;5.33;;;10.20;99.90;;;;;;5037587;28;20463;-80
2021/12/25 07:12:36;;;;;;;7.70;4.23;;;10.30;99.90;;;;;;5036870;28;20802;-80
2021/12/25 07:15:04;;;;;;;9.37;5.80;;;10.30;99.90;;;;;;5042128;28;20481;-80
2021/12/25 07:17:31;;;;;;;7.63;5.20;;;10.30;99.90;;;;;;5045665;28;20524;-79
2021/12/25 07:19:58;;;;;;;10.47;5.83;;;10.30;99.90;;;;;;5043748;28;20449;-79
2021/12/25 07:22:25;;;;;;;7.80;5.00;;;10.30;99.90;;;;;;5040175;28;20811;-80
2021/12/25 07:24:53;;;;;;;9.03;4.60;;;10.30;99.90;;;;;;5039895;28;20559;-81
2021/12/25 07:27:20;;;;;;;9.03;6.10;;;10.30;99.90;;;;;;5049108;28;20508;-80
2021/12/25 07:29:47;;;;;;;8.57;5.43;;;10.40;99.90;;;;;;5052539;28;20501;-80
2021/12/25 07:32:14;;;;;;;9.00;5.67;;;10.40;99.90;;;;;;5039654;28;20455;-81
2021/12/25 07:34:41;;;;;;;7.90;5.50;;;10.40;99.90;;;;;;5046578;28;20616;-80
2021/12/25 07:37:12;;;;;;;7.20;5.57;;;10.40;99.90;;;;;;5047499;28;20789;-80
2021/12/25 07:39:39;;;;;;;10.47;5.60;;;10.50;99.90;;;;;;5037702;28;20818;-82
2021/12/25 07:42:08;;;;;;;8.47;5.50;;;10.50;99.90;;;;;;5037176;28;20452;-80
2021/12/25 07:44:35;;;;;;;8.07;5.40;;;10.50;99.90;;;;;;5038350;28;20458;-80
2021/12/25 07:47:02;;;;;;;8.57;5.20;;;10.50;99.90;;;;;;5047222;28;20445;-80
2021/12/25 07:49:31;;;;;;;9.27;5.60;;;10.50;99.90;;;;;;5049665;28;20448;-80
2021/12/25 07:54:53;;;;;;;7.88;5.57;;;10.50;99.90;;;;;;5053026;28;20493;-80
2021/12/25 07:57:21;;;;;;;7.07;4.90;;;10.50;99.90;;;;;;5047117;28;20216;-80
2021/12/25 07:59:48;;;;;;;8.83;5.80;;;10.50;99.90;;;;;;5047842;28;21031;-83
2021/12/25 08:02:27;;;;;;;8.23;5.17;;;10.50;99.90;;;;;;5047799;28;20484;-81
2021/12/25 08:04:54;;;;;;;8.67;5.87;;;10.50;99.90;;;;;;5049398;28;20503;-80
2021/12/25 08:07:21;;;;;;;6.23;4.37;;;10.50;99.90;;;;;;5044064;28;20472;-81
2021/12/25 08:09:48;;;;;;;8.57;5.70;;;10.50;99.90;;;;;;5041603;28;20524;-80
2021/12/25 08:12:14;;;;;;;7.80;4.80;;;10.50;99.90;;;;;;5036010;28;20547;-79
2021/12/25 08:14:43;;;;;;;8.57;5.50;;;10.40;99.90;;;;;;5041040;28;20507;-80
2021/12/25 08:17:09;;;;;;;8.07;5.80;;;10.50;99.90;;;;;;5036940;28;20444;-81
2021/12/25 08:19:36;;;;;;;10.30;5.17;;;10.50;99.90;;;;;;5036075;28;20781;-81
2021/12/25 08:22:03;;;;;;;6.63;4.93;;;10.50;99.90;;;;;;5036090;28;20457;-82
2021/12/25 08:24:30;;;;;;;7.30;5.83;;;10.50;99.90;;;;;;5037142;28;20471;-82
2021/12/25 08:27:04;;;;;;;9.77;5.87;;;10.60;99.90;;;;;;5052919;28;20570;-81
2021/12/25 08:29:31;;;;;;;8.63;6.10;;;10.50;99.90;;;;;;5042654;28;20548;-81
2021/12/25 08:31:59;;;;;;;8.27;5.33;;;10.60;99.90;;;;;;5036002;28;20962;-82
2021/12/25 08:34:26;;;;;;;10.43;5.57;;;10.70;99.90;;;;;;5036035;28;20496;-82
2021/12/25 08:36:53;;;;;;;7.90;5.10;;;10.70;99.90;;;;;;5036011;28;20547;-81
2021/12/25 08:39:20;;;;;;;7.30;5.47;;;10.80;99.90;;;;;;5035988;28;20455;-82
2021/12/25 08:41:47;;;;;;;7.80;5.00;;;10.90;99.90;;;;;;5038840;28;20506;-81
2021/12/25 08:44:32;;;;;;;8.40;4.90;;;10.90;99.90;;;;;;5039335;28;20542;-81
2021/12/25 08:47:01;;;;;;;7.70;5.00;;;10.90;99.90;;;;;;5035834;28;20535;-81
2021/12/25 08:49:29;;;;;;;10.60;5.20;;;11.00;99.90;;;;;;5035648;28;20991;-81
2021/12/25 08:51:58;;;;;;;7.43;5.10;;;11.10;99.90;;;;;;5035591;28;20437;-81
2021/12/25 08:54:25;;;;;;;7.97;5.57;;;11.10;99.90;;;;;;5037137;28;20472;-81
2021/12/25 08:56:52;;;;;;;8.00;5.27;;;11.10;99.90;;;;;;5051545;28;20443;-81
2021/12/25 08:59:19;;;;;;;7.03;4.83;;;11.20;99.90;;;;;;5041983;28;20445;-82
2021/12/25 09:01:46;;;;;;;6.93;5.10;;;11.20;99.90;;;;;;5035329;28;20957;-81
2021/12/25 09:04:15;;;;;;;7.90;5.13;;;11.20;99.90;;;;;;5035390;28;20479;-82
2021/12/25 09:06:42;;;;;;;7.80;5.23;;;11.30;99.90;;;;;;5036182;28;20452;-83
2021/12/25 09:09:09;;;;;;;10.03;6.60;;;11.30;99.90;;;;;;5036031;28;20456;-82
2021/12/25 09:11:37;;;;;;;7.47;5.10;;;11.50;99.90;;;;;;5038077;28;20456;-81
2021/12/25 09:14:04;;;;;;;7.77;4.70;;;11.50;99.90;;;;;;5039415;28;20456;-82
2021/12/25 09:16:31;;;;;;;7.80;5.60;;;11.50;99.90;;;;;;5037418;28;20424;-81
2021/12/25 09:18:58;;;;;;;6.90;5.20;;;11.50;99.90;;;;;;5036349;28;20953;-82
2021/12/25 09:21:27;;;;;;;6.37;4.60;;;11.40;99.90;;;;;;5045176;28;20437;-82
2021/12/25 09:23:54;;;;;;;8.70;5.37;;;11.30;99.90;;;;;;5052339;28;20444;-81
2021/12/25 09:26:21;;;;;;;8.30;5.23;;;11.30;99.90;;;;;;5040674;28;20472;-82
2021/12/25 09:28:48;;;;;;;8.07;5.37;;;11.30;99.90;;;;;;5040001;28;20460;-81
2021/12/25 09:31:15;;;;;;;9.60;5.83;;;11.40;99.90;;;;;;5042202;28;20457;-82
2021/12/25 09:33:42;;;;;;;8.70;5.60;;;11.40;99.90;;;;;;5040785;28;20422;-78
2021/12/25 09:36:09;;;;;;;7.67;5.73;;;11.40;99.90;;;;;;5037535;28;21031;-79
2021/12/25 09:38:38;;;;;;;7.70;5.63;;;11.30;99.90;;;;;;5038193;28;20474;-80
2021/12/25 09:41:06;;;;;;;9.43;6.43;;;11.30;99.90;;;;;;5039153;28;20455;-80
2021/12/25 09:43:34;;;;;;;11.33;6.40;;;11.30;99.90;;;;;;5039462;28;20456;-80
2021/12/25 09:46:01;;;;;;;8.83;6.20;;;11.40;99.90;;;;;;5041765;28;20473;-81
2021/12/25 09:48:28;;;;;;;9.03;6.27;;;11.40;99.90;;;;;;5041434;28;20459;-80
2021/12/25 09:50:55;;;;;;;7.83;6.00;;;11.40;99.90;;;;;;5048685;28;20537;-80
2021/12/25 09:53:23;;;;;;;9.70;6.03;;;11.50;99.90;;;;;;5048139;28;20468;-80
2021/12/25 09:55:54;;;;;;;9.07;6.07;;;11.50;99.90;;;;;;5048821;28;20527;-81
2021/12/25 09:58:20;;;;;;;8.60;5.73;;;11.60;99.90;;;;;;5052030;28;20432;-81
2021/12/25 10:00:51;;;;;;;8.40;5.60;;;11.60;99.90;;;;;;5050784;28;20453;-81
2021/12/25 10:03:18;;;;;;;11.03;6.57;;;11.60;99.90;;;;;;5049172;28;20875;-81
2021/12/25 10:05:47;;;;;;;10.00;4.90;;;11.70;99.90;;;;;;5050911;28;20493;-81
2021/12/25 10:08:16;;;;;;;7.83;4.90;;;11.70;99.90;;;;;;5050508;28;20520;-81
2021/12/25 10:10:45;;;;;;;7.73;4.73;;;11.70;99.90;;;;;;5044361;28;20450;-81
2021/12/25 10:13:25;;;;;;;6.77;4.50;;;11.80;99.90;;;;;;5038346;28;20455;-82
2021/12/25 10:15:55;;;;;;;7.30;4.77;;;11.80;99.90;;;;;;5039514;28;20556;-81
2021/12/25 10:18:29;;;;;;;7.00;4.80;;;11.80;99.90;;;;;;5038395;28;20463;-82
2021/12/25 10:20:57;;;;;;;7.60;4.30;;;11.80;99.90;;;;;;5038662;28;20729;-82
2021/12/25 10:23:29;;;;;;;6.73;4.20;;;11.90;99.90;;;;;;5040176;28;20540;-81
2021/12/25 10:25:58;;;;;;;5.00;2.50;;;11.90;99.90;;;;;;5048358;28;20463;-79
2021/12/25 10:28:32;;;;;;;8.13;3.50;;;11.80;99.90;;;;;;5048354;28;20452;-79
2021/12/25 10:31:02;;;;;;;4.40;2.43;;;11.80;99.90;;;;;;5041458;28;20436;-80
2021/12/25 10:33:36;;;;;;;6.17;2.77;;;11.90;99.90;;;;;;5038270;28;20467;-81
2021/12/25 10:36:07;;;;;;;4.97;2.57;;;12.00;99.90;;;;;;5037615;28;20494;-80
2021/12/25 10:38:35;;;;;;;4.70;2.80;;;12.00;99.90;;;;;;5037401;28;20437;-81
2021/12/25 10:41:20;;;;;;;5.37;2.40;;;12.00;99.90;;;;;;5037748;28;20457;-80
2021/12/25 10:43:52;;;;;;;4.37;2.40;;;12.10;99.90;;;;;;5037499;28;20444;-80
2021/12/25 10:46:19;;;;;;;4.37;2.10;;;12.20;99.90;;;;;;5037061;28;20447;-80
2021/12/25 10:48:47;;;;;;;3.80;2.00;;;12.20;99.90;;;;;;5036623;28;20424;-81
2021/12/25 10:51:25;;;;;;;5.17;2.43;;;12.10;99.90;;;;;;5044522;28;20922;-80
2021/12/25 10:53:54;;;;;;;4.13;1.60;;;12.10;99.90;;;;;;5042597;28;20533;-80
2021/12/25 10:56:21;;;;;;;3.00;1.40;;;12.20;99.90;;;;;;5040792;28;20500;-80
2021/12/25 10:59:02;;;;;;;3.60;2.20;;;12.30;99.90;;;;;;5049740;28;20449;-81
2021/12/25 11:01:36;;;;;;;2.97;1.43;;;12.40;99.90;;;;;;5051280;28;20456;-81
2021/12/25 11:04:04;;;;;;;3.93;1.70;;;12.50;99.90;;;;;;5045417;28;20505;-81
2021/12/25 11:06:31;;;;;;;3.87;1.80;;;12.50;99.90;;;;;;5037553;28;20449;-81
2021/12/25 11:08:59;;;;;;;3.30;1.37;;;12.50;99.90;;;;;;5037290;28;20796;-81
2021/12/25 11:11:26;;;;;;;3.17;1.50;;;12.50;99.90;;;;;;5036840;28;20860;-81
2021/12/25 11:14:01;;;;;;;4.93;2.73;;;12.50;99.90;;;;;;5041819;28;20805;-81
2021/12/25 11:24:43;;;;;;;3.23;1.30;;;12.50;99.90;;;;;;4216208;26;20453;-89
2021/12/25 11:27:25;;;;;;;4.27;1.60;;;12.40;99.90;;;;;;5036646;28;20421;-89
2021/12/25 11:30:20;;;;;;;4.23;1.50;;;12.40;99.90;;;;;;5038722;28;20461;-89
2021/12/25 11:33:14;;;;;;;2.87;1.17;;;12.50;99.90;;;;;;5032746;28;20970;-89
2021/12/25 11:36:03;;;;;;;5.70;2.90;;;12.50;99.90;;;;;;5035730;28;20498;-88
2021/12/25 11:39:05;;;;;;;2.93;1.20;;;12.50;99.90;;;;;;5036044;28;20524;-89
2021/12/25 11:41:55;;;;;;;2.90;1.27;;;12.50;99.90;;;;;;5029204;28;20465;-89
2021/12/25 11:47:51;;;;;;;2.47;0.90;;;12.60;99.90;;;;;;5019904;28;20782;-90
2021/12/25 11:51:05;;;;;;;3.33;1.60;;;12.90;99.90;;;;;;5019888;28;20453;-89
2021/12/25 11:57:47;;;;;;;3.00;1.30;;;12.80;99.90;;;;;;5033262;28;20501;-89
2021/12/25 12:00:52;;;;;;;3.93;1.40;;;12.80;99.90;;;;;;4984078;28;20456;-90
2021/12/25 12:04:15;;;;;;;3.10;1.07;;;12.80;99.90;;;;;;5021146;28;20847;-89
2021/12/25 12:07:22;;;;;;;4.23;1.13;;;12.80;99.90;;;;;;5021154;28;20474;-88
2021/12/25 12:10:18;;;;;;;2.90;1.03;;;12.80;99.90;;;;;;5020857;28;20454;-90
2021/12/25 12:13:30;;;;;;;3.03;1.20;;;12.80;99.90;;;;;;5022807;28;20537;-90
2021/12/25 12:23:35;;;;;;;3.20;1.30;;;12.40;99.90;;;;;;5005775;28;20486;-90
2021/12/25 12:26:31;;;;;;;3.57;1.53;;;12.50;99.90;;;;;;4998136;28;20463;-87
2021/12/25 12:29:28;;;;;;;2.97;1.60;;;12.60;99.90;;;;;;4988963;28;20442;-88
2021/12/25 12:42:32;;;;;;;3.43;1.37;;;12.30;99.90;;;;;;4995102;28;20453;-90
2021/12/25 12:45:40;;;;;;;4.40;1.57;;;12.20;99.90;;;;;;4989326;28;20668;-90
2021/12/25 12:58:42;;;;;;;4.80;1.30;;;12.20;99.90;;;;;;5004869;28;20479;-88
2021/12/25 13:01:32;;;;;;;4.40;2.40;;;12.20;99.90;;;;;;4993544;28;20498;-89
2021/12/25 13:07:48;;;;;;;4.00;1.73;;;12.30;99.90;;;;;;5034202;28;20522;-88
2021/12/25 13:11:05;;;;;;;4.07;2.50;;;12.20;99.90;;;;;;5025582;28;20942;-89
2021/12/25 13:30:57;;;;;;;4.00;1.70;;;12.50;99.90;;;;;;4894870;29;20510;-87
2021/12/25 13:33:41;;;;;;;4.40;1.97;;;12.40;99.90;;;;;;4920707;29;20434;-88
2021/12/25 13:36:33;;;;;;;3.73;2.00;;;12.00;99.90;;;;;;4985195;28;20487;-89
2021/12/25 13:39:25;;;;;;;3.50;1.90;;;11.70;99.90;;;;;;5027342;28;20520;-87
2021/12/25 13:46:06;;;;;;;5.07;2.83;;;11.30;99.90;;;;;;4977149;28;20495;-89
2021/12/25 13:52:58;;;;;;;5.37;2.60;;;11.10;99.90;;;;;;5030014;28;20488;-88
2021/12/25 13:56:09;;;;;;;7.30;2.97;;;11.10;99.90;;;;;;5027632;28;20477;-88
2021/12/25 13:59:02;;;;;;;4.70;2.73;;;11.30;99.90;;;;;;4914017;29;20473;-88
2021/12/25 14:15:57;;;;;;;6.50;3.40;;;11.00;99.90;;;;;;4999325;28;20499;-88
2021/12/25 14:18:48;;;;;;;4.97;2.70;;;11.10;99.90;;;;;;4992699;28;20464;-90
2021/12/25 14:24:29;;;;;;;6.63;3.10;;;11.20;99.90;;;;;;4993473;28;20460;-89
2021/12/25 14:27:25;;;;;;;5.60;2.87;;;11.40;99.90;;;;;;5036579;28;20474;-89
2021/12/25 14:30:19;;;;;;;6.27;3.20;;;11.50;99.90;;;;;;5029225;28;20446;-89
2021/12/25 14:33:25;;;;;;;6.43;3.93;;;11.30;99.90;;;;;;5023487;28;20492;-90
2021/12/25 14:36:53;;;;;;;7.27;4.20;;;11.20;99.90;;;;;;5023410;28;20568;-89
2021/12/25 14:48:56;;;;;;;6.40;3.70;;;11.00;99.90;;;;;;4989297;28;20951;-90
2021/12/25 14:55:32;;;;;;;6.63;4.30;;;11.00;99.90;;;;;;5021485;28;20934;-89
2021/12/25 14:58:25;;;;;;;8.10;5.00;;;11.20;99.90;;;;;;5028352;28;20450;-89
2021/12/25 15:04:31;;;;;;;7.70;5.23;;;11.10;99.90;;;;;;5019937;28;20540;-89
2021/12/25 15:10:26;;;;;;;10.60;5.03;;;11.30;99.90;;;;;;5018760;28;20775;-90
2021/12/25 15:16:10;;;;;;;10.20;6.93;;;11.10;99.90;;;;;;5017922;28;20504;-90
2021/12/25 15:19:11;;;;;;;11.00;7.83;;;10.90;99.90;;;;;;5020240;28;20442;-88
2021/12/25 15:21:53;;;;;;;8.80;6.90;;;10.60;99.90;;;;;;5021071;28;20456;-90
2021/12/25 15:24:25;;;;;;;13.30;9.00;;;10.50;99.90;;;;;;5031096;28;20476;-89
2021/12/25 15:27:00;;;;;;;10.23;8.48;;;10.30;99.90;;;;;;5029582;28;20481;-89
2021/12/25 15:32:23;;;;;;;13.38;9.30;;;9.90;99.90;;;;;;5037993;28;20431;-88
2021/12/25 15:35:29;;;;;;;13.38;11.10;;;9.80;99.90;;;;;;5032907;28;20203;-89
2021/12/25 15:44:08;;;;;;;15.38;10.90;;;9.60;99.90;;;;;;5023296;28;20481;-89
2021/12/25 15:47:15;;;;;;;17.20;9.43;;;9.60;99.90;;;;;;5023245;28;20257;-88
2021/12/25 15:50:19;;;;;;;13.83;10.67;;;9.60;99.90;;;;;;5001375;28;20480;-88
2021/12/25 15:52:48;;;;;;;13.45;11.13;;;9.60;99.90;;;;;;5036953;28;20505;-87
2021/12/25 15:55:30;;;;;;;;;;;;;;;;;;;;;
2021/12/25 15:58:18;;;;;;;14.67;10.80;;;9.50;99.90;;;;;;5038280;28;20229;-88
2021/12/25 16:00:59;;;;;;;14.75;10.60;;;9.60;99.90;;;;;;5032261;28;20450;-89
2021/12/25 16:12:15;;;;;;;14.23;12.30;;;9.50;99.90;;;;;;5011830;28;20201;-89
2021/12/25 16:15:25;;;;;;;14.13;10.73;;;9.40;99.90;;;;;;5022071;28;20223;-89
2021/12/25 16:24:15;;;;;;;17.63;12.07;;;9.40;99.90;;;;;;5029674;28;20193;-88
2021/12/25 16:26:52;;;;;;;18.75;12.50;;;9.30;99.90;;;;;;5030694;28;20557;-90
2021/12/25 16:45:19;;;;;;;18.30;10.10;;;9.30;99.90;;;;;;4825851;29;20267;-88
2021/12/25 16:48:13;;;;;;;;;;;;;;;;;;;;;
2021/12/25 16:51:20;;;;;;;14.20;9.48;;;9.20;99.90;;;;;;5028463;28;20178;-89
2021/12/25 16:54:28;;;;;;;16.10;10.60;;;9.10;99.90;;;;;;5023683;28;20229;-89
2021/12/25 17:04:10;;;;;;;11.32;7.65;;;8.50;99.90;;;;;;5018111;28;20200;-88
2021/12/25 17:10:20;;;;;;;11.65;8.82;;;8.20;99.90;;;;;;5024131;28;20208;-89
2021/12/25 17:15:52;;;;;;;11.95;9.43;;;8.40;99.90;;;;;;5053740;22;20320;-80
2021/12/25 17:18:19;;;;;;;11.73;8.23;;;8.30;99.90;;;;;;5071720;28;20215;-82
2021/12/25 17:20:50;;;;;;;14.07;9.63;;;8.30;99.90;;;;;;5056703;28;20637;-81
2021/12/25 17:23:18;;;;;;;12.50;9.02;;;8.20;99.90;;;;;;5056424;28;20757;-80
2021/12/25 17:25:45;;;;;;;15.40;9.60;;;8.10;99.90;;;;;;5055973;28;20322;-81
2021/12/25 17:28:13;;;;;;;14.00;10.60;;;8.10;99.90;;;;;;5056897;28;20237;-81
2021/12/25 17:30:44;;;;;;;11.10;8.27;;;7.90;99.90;;;;;;5056186;28;20211;-81
2021/12/25 17:33:13;;;;;;;13.82;9.90;;;7.90;99.90;;;;;;5067585;28;20188;-79
2021/12/25 17:35:40;;;;;;;14.02;9.45;;;8.10;99.90;;;;;;5066412;28;20239;-79
2021/12/25 17:38:07;;;;;;;14.90;10.70;;;8.20;99.90;;;;;;5056463;28;20233;-80
2021/12/25 17:40:37;;;;;;;13.27;10.10;;;8.20;99.90;;;;;;5056310;28;20298;-80
2021/12/25 17:43:06;;;;;;;12.95;10.20;;;8.30;99.90;;;;;;5059511;28;20567;-80
2021/12/25 17:45:33;;;;;;;13.93;10.35;;;8.20;99.90;;;;;;5070971;28;20231;-79
2021/12/25 17:48:00;;;;;;;26.60;16.20;;;8.40;99.90;;;;;;5070382;28;20203;-81
2021/12/25 17:50:31;;;;;;;19.75;12.95;;;8.10;99.90;;;;;;5059035;28;20211;-80
2021/12/25 17:52:59;;;;;;;16.48;10.60;;;8.10;99.90;;;;;;5059416;28;20204;-80
2021/12/25 17:55:27;;;;;;;13.20;9.88;;;8.10;99.90;;;;;;5058666;28;20319;-80
2021/12/25 17:57:54;;;;;;;14.60;10.38;;;8.00;99.90;;;;;;5060990;28;20685;-79
2021/12/25 18:00:24;;;;;;;12.85;9.23;;;8.10;99.90;;;;;;5069196;28;20243;-79
2021/12/25 18:02:51;;;;;;;17.40;11.73;;;8.10;99.90;;;;;;5060807;28;20226;-79
2021/12/25 18:05:18;;;;;;;14.38;9.93;;;8.10;99.90;;;;;;5059491;28;20237;-80
2021/12/25 18:07:46;;;;;;;14.65;9.98;;;8.00;99.90;;;;;;5061096;28;20200;-80
2021/12/25 18:10:16;;;;;;;13.23;9.00;;;8.00;99.90;;;;;;5059318;28;20207;-79
2021/12/25 18:12:43;;;;;;;14.20;9.00;;;7.90;99.90;;;;;;5069805;28;20317;-79
2021/12/25 18:15:13;;;;;;;13.38;9.48;;;7.90;99.90;;;;;;5061359;28;20203;-80
2021/12/25 18:17:42;;;;;;;16.98;11.20;;;7.60;99.90;;;;;;5060015;28;20211;-79
2021/12/25 18:20:11;;;;;;;17.33;10.52;;;7.70;99.90;;;;;;5059940;28;20288;-79
2021/12/25 18:22:39;;;;;;;33.78;20.15;;;7.80;99.90;;;;;;5057923;28;20274;-79
2021/12/25 18:25:09;;;;;;;28.98;16.13;;;7.80;99.90;;;;;;5060548;28;20253;-79
2021/12/25 18:27:36;;;;;;;29.75;18.73;;;7.80;99.90;;;;;;5062588;28;20188;-79
2021/12/25 18:30:05;;;;;;;19.08;11.20;;;7.80;99.90;;;;;;5062116;28;20227;-80
2021/12/25 18:32:43;;;;;;;12.65;9.55;;;7.70;99.90;;;;;;5064248;28;20289;-80
2021/12/25 18:35:11;;;;;;;13.52;9.20;;;7.70;99.90;;;;;;5060787;28;20199;-81
2021/12/25 18:37:39;;;;;;;15.07;10.57;;;7.80;99.90;;;;;;5059663;28;20602;-81
2021/12/25 18:40:12;;;;;;;16.25;8.40;;;7.70;99.90;;;;;;5060078;28;20298;-83
2021/12/25 18:42:39;;;;;;;15.55;10.65;;;7.80;99.90;;;;;;5066819;28;20197;-80
2021/12/25 18:45:07;;;;;;;11.52;8.18;;;7.60;99.90;;;;;;5075528;28;20263;-80
2021/12/25 18:47:34;;;;;;;15.07;9.85;;;7.60;99.90;;;;;;5076194;28;20217;-80
2021/12/25 18:50:00;;;;;;;14.05;8.95;;;7.40;99.90;;;;;;5076395;28;20266;-80
2021/12/25 18:52:27;;;;;;;11.15;8.10;;;7.30;99.90;;;;;;5064034;28;20273;-78
2021/12/25 18:54:54;;;;;;;12.30;8.30;;;7.30;99.90;;;;;;5059958;28;20191;-80
2021/12/25 18:57:22;;;;;;;14.70;10.10;;;7.20;99.90;;;;;;5059604;28;20284;-80
2021/12/25 18:59:49;;;;;;;17.30;11.02;;;7.20;99.90;;;;;;5060580;28;20297;-80
2021/12/25 19:02:16;;;;;;;11.07;7.40;;;7.40;99.90;;;;;;5068294;28;20233;-79
2021/12/25 19:04:43;;;;;;;10.88;7.55;;;7.30;99.90;;;;;;5060788;28;20293;-79
2021/12/25 19:07:10;;;;;;;12.38;8.52;;;7.20;99.90;;;;;;5060134;28;20258;-80
2021/12/25 19:09:37;;;;;;;11.85;7.70;;;7.20;99.90;;;;;;5057605;28;20202;-79
2021/12/25 19:12:05;;;;;;;10.13;7.95;;;7.20;99.90;;;;;;5056048;28;20211;-79
2021/12/25 19:14:34;;;;;;;11.32;7.78;;;7.30;99.90;;;;;;5057301;28;20250;-79
2021/12/25 19:17:01;;;;;;;9.20;6.45;;;6.70;99.90;;;;;;5056334;28;22227;-79
2021/12/25 19:19:28;;;;;;;13.80;8.35;;;7.20;99.90;;;;;;5056869;28;20218;-79
2021/12/25 19:21:55;;;;;;;16.17;9.95;;;7.20;99.90;;;;;;5058613;28;20228;-79
2021/12/25 19:24:22;;;;;;;11.65;8.10;;;7.30;99.90;;;;;;5058606;28;20358;-78
2021/12/25 19:26:49;;;;;;;10.93;7.35;;;7.10;99.90;;;;;;5057465;28;20243;-81
2021/12/25 19:29:17;;;;;;;30.77;15.90;;;7.10;99.90;;;;;;5057616;28;20208;-81
2021/12/25 19:31:45;;;;;;;20.38;11.23;;;7.00;99.90;;;;;;5057050;28;20295;-79
2021/12/25 19:34:13;;;;;;;12.48;8.07;;;7.10;99.90;;;;;;5059484;28;20212;-80
2021/12/25 19:36:41;;;;;;;16.88;9.02;;;6.90;99.90;;;;;;5059295;28;20696;-80
2021/12/25 19:39:09;;;;;;;10.65;7.38;;;6.70;99.90;;;;;;5057224;28;20310;-79
2021/12/25 19:41:37;;;;;;;10.43;6.90;;;7.00;99.90;;;;;;5057860;28;20302;-79
2021/12/25 19:44:04;;;;;;;12.85;6.45;;;6.70;99.90;;;;;;5057528;28;20241;-80
2021/12/25 19:46:32;;;;;;;12.35;9.20;;;6.80;99.90;;;;;;5057404;28;20770;-80